sensor_id;sensor_type;location;lat;lon;timestamp;pressure;altitude;pressure_sealevel;temperature;humidity
59106;BME280;44891;50.204;8.132;2023-03-21T00:00:28;98403.47;;;8.96;77.46
59106;BME280;44891;50.204;8.132;2023-03-21T00:04:30;98396.09;;;9.05;77.49
59106;BME280;44891;50.204;8.132;2023-03-21T00:08:33;98393.97;;;8.84;78.62
59106;BME280;44891;50.204;8.132;2023-03-21T00:12:35;98381.31;;;8.81;79.94
59106;BME280;44891;50.204;8.132;2023-03-21T00:16:37;98382.78;;;8.77;81.09
59106;BME280;44891;50.204;8.132;2023-03-21T00:20:39;98375.53;;;8.90;80.12
59106;BME280;44891;50.204;8.132;2023-03-21T00:24:42;98377.06;;;8.98;78.37
59106;BME280;44891;50.204;8.132;2023-03-21T00:28:44;98370.66;;;8.94;77.09
59106;BME280;44891;50.204;8.132;2023-03-21T00:32:46;98369.88;;;8.93;77.46
59106;BME280;44891;50.204;8.132;2023-03-21T00:36:49;98372.50;;;8.93;77.70
59106;BME280;44891;50.204;8.132;2023-03-21T00:40:52;98377.88;;;8.98;77.25
59106;BME280;44891;50.204;8.132;2023-03-21T00:44:54;98361.56;;;8.96;76.19
59106;BME280;44891;50.204;8.132;2023-03-21T00:48:56;98362.94;;;8.99;75.45
59106;BME280;44891;50.204;8.132;2023-03-21T00:52:58;98357.25;;;9.02;76.04
59106;BME280;44891;50.204;8.132;2023-03-21T00:57:01;98356.34;;;9.08;75.97
59106;BME280;44891;50.204;8.132;2023-03-21T01:01:04;98361.03;;;9.06;76.50
59106;BME280;44891;50.204;8.132;2023-03-21T01:05:10;98365.22;;;9.07;77.98
59106;BME280;44891;50.204;8.132;2023-03-21T01:09:13;98353.50;;;8.98;78.60
59106;BME280;44891;50.204;8.132;2023-03-21T01:13:18;98344.59;;;8.99;76.90
59106;BME280;44891;50.204;8.132;2023-03-21T01:17:20;98349.56;;;8.89;77.55
59106;BME280;44891;50.204;8.132;2023-03-21T01:21:22;98348.75;;;8.77;80.19
59106;BME280;44891;50.204;8.132;2023-03-21T01:25:24;98340.41;;;8.68;81.36
59106;BME280;44891;50.204;8.132;2023-03-21T01:29:27;98334.97;;;8.51;80.41
59106;BME280;44891;50.204;8.132;2023-03-21T01:33:31;98339.06;;;8.29;79.18
59106;BME280;44891;50.204;8.132;2023-03-21T01:37:34;98336.03;;;8.13;79.91
59106;BME280;44891;50.204;8.132;2023-03-21T01:41:37;98328.59;;;8.10;79.88
59106;BME280;44891;50.204;8.132;2023-03-21T01:50:29;98323.84;;;8.07;81.20
59106;BME280;44891;50.204;8.132;2023-03-21T01:54:51;98318.59;;;8.07;80.82
59106;BME280;44891;50.204;8.132;2023-03-21T01:58:57;98317.56;;;8.08;81.01
59106;BME280;44891;50.204;8.132;2023-03-21T02:03:28;98317.94;;;7.94;81.17
59106;BME280;44891;50.204;8.132;2023-03-21T02:07:54;98306.38;;;7.83;81.42
59106;BME280;44891;50.204;8.132;2023-03-21T02:11:56;98304.81;;;7.82;81.85
59106;BME280;44891;50.204;8.132;2023-03-21T02:16:05;98300.22;;;7.77;82.47
59106;BME280;44891;50.204;8.132;2023-03-21T02:24:44;98284.75;;;7.57;83.90
59106;BME280;44891;50.204;8.132;2023-03-21T02:28:52;98282.84;;;7.64;83.96
59106;BME280;44891;50.204;8.132;2023-03-21T02:32:59;98282.28;;;7.62;84.32
59106;BME280;44891;50.204;8.132;2023-03-21T02:37:14;98290.81;;;7.51;84.60
59106;BME280;44891;50.204;8.132;2023-03-21T02:41:21;98285.75;;;7.56;84.50
59106;BME280;44891;50.204;8.132;2023-03-21T02:45:27;98289.53;;;7.60;84.52
59106;BME280;44891;50.204;8.132;2023-03-21T02:49:34;98279.44;;;7.64;84.40
59106;BME280;44891;50.204;8.132;2023-03-21T02:53:39;98280.25;;;7.64;84.66
59106;BME280;44891;50.204;8.132;2023-03-21T02:57:42;98282.06;;;7.64;85.11
59106;BME280;44891;50.204;8.132;2023-03-21T03:01:46;98279.09;;;7.60;85.60
59106;BME280;44891;50.204;8.132;2023-03-21T03:05:49;98273.41;;;7.63;85.19
59106;BME280;44891;50.204;8.132;2023-03-21T03:09:58;98275.53;;;7.55;85.56
59106;BME280;44891;50.204;8.132;2023-03-21T03:14:07;98272.69;;;7.56;85.82
59106;BME280;44891;50.204;8.132;2023-03-21T03:18:18;98262.88;;;7.70;85.73
59106;BME280;44891;50.204;8.132;2023-03-21T03:22:22;98262.16;;;7.63;85.88
59106;BME280;44891;50.204;8.132;2023-03-21T03:26:28;98258.59;;;7.57;85.93
59106;BME280;44891;50.204;8.132;2023-03-21T03:30:32;98252.88;;;7.49;85.75
59106;BME280;44891;50.204;8.132;2023-03-21T03:34:39;98256.19;;;7.38;86.12
59106;BME280;44891;50.204;8.132;2023-03-21T03:38:43;98255.84;;;7.34;86.98
59106;BME280;44891;50.204;8.132;2023-03-21T03:42:48;98253.28;;;7.27;87.43
59106;BME280;44891;50.204;8.132;2023-03-21T03:46:59;98246.75;;;7.36;87.56
59106;BME280;44891;50.204;8.132;2023-03-21T03:51:03;98243.06;;;7.44;87.50
59106;BME280;44891;50.204;8.132;2023-03-21T03:55:29;98241.78;;;7.53;87.15
59106;BME280;44891;50.204;8.132;2023-03-21T03:59:39;98241.97;;;7.52;87.68
59106;BME280;44891;50.204;8.132;2023-03-21T04:04:13;98257.66;;;7.52;88.41
59106;BME280;44891;50.204;8.132;2023-03-21T04:08:17;98250.91;;;7.62;88.23
59106;BME280;44891;50.204;8.132;2023-03-21T04:12:24;98249.41;;;7.73;87.98
59106;BME280;44891;50.204;8.132;2023-03-21T04:16:41;98255.53;;;7.79;87.18
59106;BME280;44891;50.204;8.132;2023-03-21T04:20:43;98248.94;;;7.76;86.98
59106;BME280;44891;50.204;8.132;2023-03-21T04:24:45;98214.25;;;7.51;87.35
59106;BME280;44891;50.204;8.132;2023-03-21T04:28:47;98246.19;;;7.71;87.42
59106;BME280;44891;50.204;8.132;2023-03-21T04:33:09;98239.59;;;7.69;87.14
59106;BME280;44891;50.204;8.132;2023-03-21T04:37:13;98236.09;;;7.75;87.39
59106;BME280;44891;50.204;8.132;2023-03-21T04:41:15;98229.78;;;7.82;86.92
59106;BME280;44891;50.204;8.132;2023-03-21T04:45:17;98235.94;;;7.88;87.45
59106;BME280;44891;50.204;8.132;2023-03-21T04:49:21;98242.31;;;7.92;87.80
59106;BME280;44891;50.204;8.132;2023-03-21T04:53:23;98232.88;;;7.91;87.49
59106;BME280;44891;50.204;8.132;2023-03-21T04:57:25;98225.97;;;7.97;87.69
59106;BME280;44891;50.204;8.132;2023-03-21T05:01:27;98216.75;;;7.94;88.13
59106;BME280;44891;50.204;8.132;2023-03-21T05:05:31;98214.88;;;8.01;88.40
59106;BME280;44891;50.204;8.132;2023-03-21T05:09:33;98215.47;;;8.15;88.01
59106;BME280;44891;50.204;8.132;2023-03-21T05:13:35;98220.72;;;8.15;88.09
59106;BME280;44891;50.204;8.132;2023-03-21T05:17:37;98215.72;;;8.13;87.84
59106;BME280;44891;50.204;8.132;2023-03-21T05:21:40;98224.41;;;8.26;86.32
59106;BME280;44891;50.204;8.132;2023-03-21T05:25:46;98205.16;;;8.32;85.57
59106;BME280;44891;50.204;8.132;2023-03-21T05:29:52;98205.34;;;8.37;85.69
59106;BME280;44891;50.204;8.132;2023-03-21T05:33:54;98215.06;;;8.30;86.70
59106;BME280;44891;50.204;8.132;2023-03-21T05:37:57;98216.50;;;8.44;86.15
59106;BME280;44891;50.204;8.132;2023-03-21T05:42:02;98216.75;;;8.54;85.21
59106;BME280;44891;50.204;8.132;2023-03-21T05:46:05;98218.50;;;8.60;84.88
59106;BME280;44891;50.204;8.132;2023-03-21T05:50:08;98221.94;;;8.73;83.88
59106;BME280;44891;50.204;8.132;2023-03-21T05:54:12;98225.25;;;8.80;83.51
59106;BME280;44891;50.204;8.132;2023-03-21T05:58:18;98228.53;;;8.87;82.54
59106;BME280;44891;50.204;8.132;2023-03-21T06:02:23;98227.41;;;8.94;81.81
59106;BME280;44891;50.204;8.132;2023-03-21T06:06:27;98218.88;;;8.99;81.64
59106;BME280;44891;50.204;8.132;2023-03-21T06:10:32;98222.19;;;9.06;81.33
59106;BME280;44891;50.204;8.132;2023-03-21T06:14:37;98221.03;;;9.14;80.41
59106;BME280;44891;50.204;8.132;2023-03-21T06:19:02;98216.72;;;9.19;80.33
59106;BME280;44891;50.204;8.132;2023-03-21T06:23:24;98214.22;;;9.24;79.04
59106;BME280;44891;50.204;8.132;2023-03-21T06:27:28;98222.75;;;9.32;78.40
59106;BME280;44891;50.204;8.132;2023-03-21T06:31:30;98224.91;;;9.35;78.17
59106;BME280;44891;50.204;8.132;2023-03-21T06:35:36;98244.81;;;9.47;77.63
59106;BME280;44891;50.204;8.132;2023-03-21T06:39:38;98232.50;;;9.48;77.67
59106;BME280;44891;50.204;8.132;2023-03-21T06:43:41;98230.44;;;9.62;77.14
59106;BME280;44891;50.204;8.132;2023-03-21T06:47:43;98230.66;;;9.72;76.95
59106;BME280;44891;50.204;8.132;2023-03-21T06:51:57;98237.91;;;9.81;76.59
59106;BME280;44891;50.204;8.132;2023-03-21T06:55:58;98234.47;;;9.93;75.85
59106;BME280;44891;50.204;8.132;2023-03-21T07:00:02;98189.13;;;9.80;75.70
59106;BME280;44891;50.204;8.132;2023-03-21T07:04:06;98229.00;;;10.23;74.99
59106;BME280;44891;50.204;8.132;2023-03-21T07:08:09;98235.75;;;10.30;74.64
59106;BME280;44891;50.204;8.132;2023-03-21T07:12:12;98233.19;;;10.35;74.29
59106;BME280;44891;50.204;8.132;2023-03-21T07:16:39;98228.06;;;10.29;74.35
59106;BME280;44891;50.204;8.132;2023-03-21T07:20:41;98235.09;;;10.40;74.62
59106;BME280;44891;50.204;8.132;2023-03-21T07:24:47;98235.19;;;10.45;74.13
59106;BME280;44891;50.204;8.132;2023-03-21T07:28:49;98240.59;;;10.39;73.73
59106;BME280;44891;50.204;8.132;2023-03-21T07:32:52;98241.78;;;10.48;73.55
59106;BME280;44891;50.204;8.132;2023-03-21T07:36:54;98242.84;;;10.47;72.63
59106;BME280;44891;50.204;8.132;2023-03-21T07:40:57;98249.03;;;10.41;73.00
59106;BME280;44891;50.204;8.132;2023-03-21T07:44:59;98248.72;;;10.37;72.60
59106;BME280;44891;50.204;8.132;2023-03-21T07:49:08;98245.38;;;10.42;73.32
59106;BME280;44891;50.204;8.132;2023-03-21T07:53:10;98245.47;;;10.47;72.53
59106;BME280;44891;50.204;8.132;2023-03-21T07:57:11;98248.97;;;10.52;72.56
59106;BME280;44891;50.204;8.132;2023-03-21T08:01:13;98254.97;;;10.65;71.79
59106;BME280;44891;50.204;8.132;2023-03-21T08:05:16;98252.28;;;10.76;71.71
59106;BME280;44891;50.204;8.132;2023-03-21T08:09:18;98248.50;;;10.89;71.20
59106;BME280;44891;50.204;8.132;2023-03-21T08:13:20;98243.97;;;11.01;70.58
59106;BME280;44891;50.204;8.132;2023-03-21T08:17:22;98247.25;;;11.08;69.99
59106;BME280;44891;50.204;8.132;2023-03-21T08:21:25;98253.22;;;11.04;69.77
59106;BME280;44891;50.204;8.132;2023-03-21T08:25:27;98251.22;;;10.94;69.30
59106;BME280;44891;50.204;8.132;2023-03-21T08:29:29;98245.44;;;10.92;69.57
59106;BME280;44891;50.204;8.132;2023-03-21T08:33:31;98244.13;;;10.95;70.15
59106;BME280;44891;50.204;8.132;2023-03-21T08:37:34;98250.66;;;11.09;70.23
59106;BME280;44891;50.204;8.132;2023-03-21T08:41:36;98255.84;;;11.21;70.49
59106;BME280;44891;50.204;8.132;2023-03-21T08:45:38;98257.03;;;11.13;70.55
59106;BME280;44891;50.204;8.132;2023-03-21T08:49:40;98258.22;;;11.22;69.97
59106;BME280;44891;50.204;8.132;2023-03-21T08:53:46;98254.50;;;11.18;71.15
59106;BME280;44891;50.204;8.132;2023-03-21T08:57:50;98255.19;;;11.13;70.63
59106;BME280;44891;50.204;8.132;2023-03-21T09:01:52;98251.94;;;11.23;71.33
59106;BME280;44891;50.204;8.132;2023-03-21T09:05:54;98252.16;;;11.22;72.07
59106;BME280;44891;50.204;8.132;2023-03-21T09:09:57;98249.78;;;11.20;72.72
59106;BME280;44891;50.204;8.132;2023-03-21T09:13:59;98256.16;;;11.24;72.22
59106;BME280;44891;50.204;8.132;2023-03-21T09:18:02;98256.16;;;11.24;70.84
59106;BME280;44891;50.204;8.132;2023-03-21T09:22:13;98258.38;;;11.32;71.53
59106;BME280;44891;50.204;8.132;2023-03-21T09:26:18;98261.63;;;11.39;71.89
59106;BME280;44891;50.204;8.132;2023-03-21T09:30:20;98256.91;;;11.41;73.20
59106;BME280;44891;50.204;8.132;2023-03-21T09:34:22;98254.28;;;11.41;74.13
59106;BME280;44891;50.204;8.132;2023-03-21T09:38:24;98254.00;;;11.38;72.52
59106;BME280;44891;50.204;8.132;2023-03-21T09:42:34;98250.41;;;11.27;74.82
59106;BME280;44891;50.204;8.132;2023-03-21T09:46:40;98254.78;;;11.22;73.65
59106;BME280;44891;50.204;8.132;2023-03-21T09:50:44;98255.91;;;11.09;75.02
59106;BME280;44891;50.204;8.132;2023-03-21T09:54:46;98255.53;;;11.17;78.14
59106;BME280;44891;50.204;8.132;2023-03-21T09:58:49;98260.72;;;11.12;77.35
59106;BME280;44891;50.204;8.132;2023-03-21T10:02:54;98259.41;;;11.31;80.21
59106;BME280;44891;50.204;8.132;2023-03-21T10:07:00;98262.47;;;11.23;78.00
59106;BME280;44891;50.204;8.132;2023-03-21T10:11:05;98252.75;;;11.24;77.91
59106;BME280;44891;50.204;8.132;2023-03-21T10:15:13;98251.06;;;11.01;78.38
59106;BME280;44891;50.204;8.132;2023-03-21T10:19:17;98245.19;;;11.10;79.95
59106;BME280;44891;50.204;8.132;2023-03-21T10:23:20;98247.56;;;11.12;83.11
59106;BME280;44891;50.204;8.132;2023-03-21T10:27:23;98245.41;;;11.09;82.52
59106;BME280;44891;50.204;8.132;2023-03-21T10:31:26;98245.34;;;11.04;83.44
59106;BME280;44891;50.204;8.132;2023-03-21T10:35:30;98258.06;;;10.95;84.85
59106;BME280;44891;50.204;8.132;2023-03-21T10:39:33;98256.41;;;10.89;87.40
59106;BME280;44891;50.204;8.132;2023-03-21T10:43:37;98259.53;;;11.03;87.18
59106;BME280;44891;50.204;8.132;2023-03-21T10:47:41;98260.94;;;10.94;85.94
59106;BME280;44891;50.204;8.132;2023-03-21T10:51:43;98254.81;;;10.88;87.67
59106;BME280;44891;50.204;8.132;2023-03-21T10:55:47;98263.47;;;10.88;88.76
59106;BME280;44891;50.204;8.132;2023-03-21T10:59:53;98259.03;;;10.72;88.13
59106;BME280;44891;50.204;8.132;2023-03-21T11:03:59;98261.41;;;10.74;88.77
59106;BME280;44891;50.204;8.132;2023-03-21T11:08:02;98271.38;;;10.72;91.89
59106;BME280;44891;50.204;8.132;2023-03-21T11:12:08;98260.06;;;10.71;88.29
59106;BME280;44891;50.204;8.132;2023-03-21T11:16:12;98268.25;;;10.75;89.09
59106;BME280;44891;50.204;8.132;2023-03-21T11:20:20;98249.81;;;10.86;92.57
59106;BME280;44891;50.204;8.132;2023-03-21T11:24:22;98210.88;;;10.67;90.46
59106;BME280;44891;50.204;8.132;2023-03-21T11:28:24;98245.41;;;10.75;90.94
59106;BME280;44891;50.204;8.132;2023-03-21T11:32:33;98238.75;;;10.84;88.21
59106;BME280;44891;50.204;8.132;2023-03-21T11:36:36;98237.53;;;10.92;89.75
59106;BME280;44891;50.204;8.132;2023-03-21T11:40:39;98238.09;;;10.77;95.48
59106;BME280;44891;50.204;8.132;2023-03-21T11:44:56;98227.19;;;10.85;91.00
59106;BME280;44891;50.204;8.132;2023-03-21T11:48:58;98219.88;;;10.71;89.40
59106;BME280;44891;50.204;8.132;2023-03-21T11:53:22;98222.16;;;10.67;89.59
59106;BME280;44891;50.204;8.132;2023-03-21T11:57:28;98211.66;;;10.67;92.20
59106;BME280;44891;50.204;8.132;2023-03-21T12:01:36;98208.25;;;10.83;92.44
59106;BME280;44891;50.204;8.132;2023-03-21T12:05:42;98205.13;;;10.86;86.55
59106;BME280;44891;50.204;8.132;2023-03-21T12:09:49;98204.59;;;10.84;85.37
59106;BME280;44891;50.204;8.132;2023-03-21T12:13:55;98193.44;;;10.77;86.40
59106;BME280;44891;50.204;8.132;2023-03-21T12:18:00;98188.19;;;10.77;84.65
59106;BME280;44891;50.204;8.132;2023-03-21T12:22:09;98185.94;;;10.86;86.60
59106;BME280;44891;50.204;8.132;2023-03-21T12:26:18;98191.53;;;10.73;87.62
59106;BME280;44891;50.204;8.132;2023-03-21T12:30:25;98188.34;;;10.54;89.08
59106;BME280;44891;50.204;8.132;2023-03-21T12:34:42;98175.13;;;10.49;89.38
59106;BME280;44891;50.204;8.132;2023-03-21T12:38:50;98173.78;;;10.46;89.44
59106;BME280;44891;50.204;8.132;2023-03-21T12:43:03;98161.66;;;10.28;89.67
59106;BME280;44891;50.204;8.132;2023-03-21T12:47:11;98154.72;;;10.22;88.72
59106;BME280;44891;50.204;8.132;2023-03-21T12:51:14;98150.00;;;10.07;89.95
59106;BME280;44891;50.204;8.132;2023-03-21T12:55:19;98148.41;;;10.06;91.33
59106;BME280;44891;50.204;8.132;2023-03-21T12:59:26;98140.06;;;10.09;93.04
59106;BME280;44891;50.204;8.132;2023-03-21T13:03:31;98133.50;;;9.95;91.60
59106;BME280;44891;50.204;8.132;2023-03-21T13:07:38;98138.13;;;9.88;91.84
59106;BME280;44891;50.204;8.132;2023-03-21T13:11:42;98134.44;;;9.72;91.27
59106;BME280;44891;50.204;8.132;2023-03-21T13:15:54;98129.94;;;9.85;92.16
59106;BME280;44891;50.204;8.132;2023-03-21T13:20:00;98126.97;;;9.81;92.88
59106;BME280;44891;50.204;8.132;2023-03-21T13:24:17;98111.63;;;9.73;92.60
59106;BME280;44891;50.204;8.132;2023-03-21T13:28:20;98111.22;;;9.64;92.95
59106;BME280;44891;50.204;8.132;2023-03-21T13:32:26;98104.34;;;9.63;92.77
59106;BME280;44891;50.204;8.132;2023-03-21T13:36:29;98093.00;;;9.58;94.66
59106;BME280;44891;50.204;8.132;2023-03-21T13:40:34;98081.00;;;9.62;96.54
59106;BME280;44891;50.204;8.132;2023-03-21T13:44:39;98087.13;;;9.67;96.51
59106;BME280;44891;50.204;8.132;2023-03-21T13:48:54;98075.16;;;9.71;96.68
59106;BME280;44891;50.204;8.132;2023-03-21T13:57:36;98066.69;;;9.69;97.14
59106;BME280;44891;50.204;8.132;2023-03-21T14:01:56;98050.97;;;9.69;97.11
59106;BME280;44891;50.204;8.132;2023-03-21T14:06:00;98048.28;;;9.64;99.00
59106;BME280;44891;50.204;8.132;2023-03-21T14:10:03;98037.41;;;9.72;97.91
59106;BME280;44891;50.204;8.132;2023-03-21T14:14:06;98049.88;;;9.65;98.57
59106;BME280;44891;50.204;8.132;2023-03-21T14:18:13;98037.00;;;9.80;98.89
59106;BME280;44891;50.204;8.132;2023-03-21T14:22:16;98061.34;;;9.93;100.00
59106;BME280;44891;50.204;8.132;2023-03-21T14:26:19;98058.16;;;10.07;100.00
59106;BME280;44891;50.204;8.132;2023-03-21T14:30:22;98055.53;;;10.07;94.47
59106;BME280;44891;50.204;8.132;2023-03-21T14:34:25;98051.19;;;10.13;94.87
59106;BME280;44891;50.204;8.132;2023-03-21T14:38:33;98062.84;;;10.22;93.28
59106;BME280;44891;50.204;8.132;2023-03-21T14:42:36;98047.53;;;10.31;92.13
59106;BME280;44891;50.204;8.132;2023-03-21T14:46:38;98057.16;;;10.25;92.86
59106;BME280;44891;50.204;8.132;2023-03-21T14:50:41;98047.03;;;10.51;94.56
59106;BME280;44891;50.204;8.132;2023-03-21T14:54:48;98043.91;;;10.54;94.69
59106;BME280;44891;50.204;8.132;2023-03-21T14:58:50;98044.41;;;10.51;95.10
59106;BME280;44891;50.204;8.132;2023-03-21T15:02:53;98025.19;;;10.28;91.83
59106;BME280;44891;50.204;8.132;2023-03-21T15:06:55;97964.66;;;10.01;96.06
59106;BME280;44891;50.204;8.132;2023-03-21T15:11:00;98017.47;;;10.39;95.86
59106;BME280;44891;50.204;8.132;2023-03-21T15:15:02;98025.50;;;10.32;98.23
59106;BME280;44891;50.204;8.132;2023-03-21T15:19:05;98031.75;;;10.48;100.00
59106;BME280;44891;50.204;8.132;2023-03-21T15:23:08;98029.75;;;10.55;99.10
59106;BME280;44891;50.204;8.132;2023-03-21T15:27:14;98036.41;;;10.62;97.75
59106;BME280;44891;50.204;8.132;2023-03-21T15:31:17;98036.50;;;10.68;97.80
59106;BME280;44891;50.204;8.132;2023-03-21T15:35:20;98025.88;;;10.57;96.12
59106;BME280;44891;50.204;8.132;2023-03-21T15:39:22;98021.88;;;10.55;95.22
59106;BME280;44891;50.204;8.132;2023-03-21T15:43:27;98008.47;;;10.34;97.85
59106;BME280;44891;50.204;8.132;2023-03-21T15:47:39;98002.44;;;10.17;100.00
59106;BME280;44891;50.204;8.132;2023-03-21T15:51:43;97992.41;;;10.14;100.00
59106;BME280;44891;50.204;8.132;2023-03-21T15:55:46;97988.28;;;10.18;100.00
59106;BME280;44891;50.204;8.132;2023-03-21T15:59:52;97986.28;;;10.08;100.00
59106;BME280;44891;50.204;8.132;2023-03-21T16:03:56;97994.66;;;10.05;100.00
59106;BME280;44891;50.204;8.132;2023-03-21T16:07:59;97988.44;;;10.12;100.00
59106;BME280;44891;50.204;8.132;2023-03-21T16:12:07;97988.19;;;10.13;100.00
59106;BME280;44891;50.204;8.132;2023-03-21T16:16:14;97978.19;;;10.27;100.00
59106;BME280;44891;50.204;8.132;2023-03-21T16:20:18;97989.63;;;10.38;100.00
59106;BME280;44891;50.204;8.132;2023-03-21T16:24:21;97982.47;;;10.33;100.00
59106;BME280;44891;50.204;8.132;2023-03-21T16:28:22;97979.22;;;10.26;100.00
59106;BME280;44891;50.204;8.132;2023-03-21T16:32:25;97967.16;;;10.25;100.00
59106;BME280;44891;50.204;8.132;2023-03-21T16:36:29;97957.44;;;10.08;100.00
59106;BME280;44891;50.204;8.132;2023-03-21T16:40:32;97953.63;;;9.99;100.00
59106;BME280;44891;50.204;8.132;2023-03-21T16:44:34;97949.72;;;10.02;100.00
59106;BME280;44891;50.204;8.132;2023-03-21T16:48:40;97941.78;;;9.97;100.00
59106;BME280;44891;50.204;8.132;2023-03-21T16:52:42;97934.78;;;10.02;100.00
59106;BME280;44891;50.204;8.132;2023-03-21T16:56:44;97940.03;;;10.02;100.00
59106;BME280;44891;50.204;8.132;2023-03-21T17:00:47;97948.38;;;9.99;100.00
59106;BME280;44891;50.204;8.132;2023-03-21T17:04:50;97944.00;;;10.05;100.00
59106;BME280;44891;50.204;8.132;2023-03-21T17:08:52;97952.19;;;10.08;99.40
59106;BME280;44891;50.204;8.132;2023-03-21T17:12:54;97952.19;;;10.08;98.13
59106;BME280;44891;50.204;8.132;2023-03-21T17:16:56;97953.72;;;10.04;98.48
59106;BME280;44891;50.204;8.132;2023-03-21T17:20:59;97956.00;;;10.01;99.03
59106;BME280;44891;50.204;8.132;2023-03-21T17:25:01;97950.50;;;10.02;99.38
59106;BME280;44891;50.204;8.132;2023-03-21T17:29:03;97939.56;;;10.05;99.55
59106;BME280;44891;50.204;8.132;2023-03-21T17:33:05;97946.56;;;10.00;98.96
59106;BME280;44891;50.204;8.132;2023-03-21T17:37:09;97961.41;;;9.94;99.45
59106;BME280;44891;50.204;8.132;2023-03-21T17:41:12;97954.25;;;9.90;98.89
59106;BME280;44891;50.204;8.132;2023-03-21T17:45:14;97953.16;;;9.86;99.46
59106;BME280;44891;50.204;8.132;2023-03-21T17:49:16;97957.69;;;9.73;100.00
59106;BME280;44891;50.204;8.132;2023-03-21T17:53:20;97958.81;;;9.77;100.00
59106;BME280;44891;50.204;8.132;2023-03-21T17:57:22;97951.91;;;9.71;100.00
59106;BME280;44891;50.204;8.132;2023-03-21T18:01:25;97960.00;;;9.70;100.00
59106;BME280;44891;50.204;8.132;2023-03-21T18:05:27;97955.31;;;9.72;100.00
59106;BME280;44891;50.204;8.132;2023-03-21T18:09:30;97962.84;;;9.68;100.00
59106;BME280;44891;50.204;8.132;2023-03-21T18:13:32;97970.19;;;9.66;100.00
59106;BME280;44891;50.204;8.132;2023-03-21T18:17:34;97967.00;;;9.64;100.00
59106;BME280;44891;50.204;8.132;2023-03-21T18:21:36;97979.69;;;9.56;100.00
59106;BME280;44891;50.204;8.132;2023-03-21T18:25:41;97984.69;;;9.40;100.00
59106;BME280;44891;50.204;8.132;2023-03-21T18:29:43;97981.81;;;9.42;100.00
59106;BME280;44891;50.204;8.132;2023-03-21T18:33:45;97984.34;;;9.37;100.00
59106;BME280;44891;50.204;8.132;2023-03-21T18:37:48;97988.47;;;9.33;100.00
59106;BME280;44891;50.204;8.132;2023-03-21T18:41:51;97990.84;;;9.34;100.00
59106;BME280;44891;50.204;8.132;2023-03-21T18:45:54;97995.44;;;9.27;100.00
59106;BME280;44891;50.204;8.132;2023-03-21T18:49:56;97992.50;;;9.23;100.00
59106;BME280;44891;50.204;8.132;2023-03-21T18:53:57;98000.94;;;9.25;100.00
59106;BME280;44891;50.204;8.132;2023-03-21T18:58:01;97994.66;;;9.26;100.00
59106;BME280;44891;50.204;8.132;2023-03-21T19:02:04;97992.88;;;9.15;100.00
59106;BME280;44891;50.204;8.132;2023-03-21T19:06:06;97993.13;;;9.14;100.00
59106;BME280;44891;50.204;8.132;2023-03-21T19:10:08;97982.88;;;9.12;100.00
59106;BME280;44891;50.204;8.132;2023-03-21T19:14:12;97984.22;;;9.15;100.00
59106;BME280;44891;50.204;8.132;2023-03-21T19:18:14;97986.38;;;9.18;100.00
59106;BME280;44891;50.204;8.132;2023-03-21T19:22:16;97987.19;;;9.18;100.00
59106;BME280;44891;50.204;8.132;2023-03-21T19:26:18;97989.72;;;9.02;100.00
59106;BME280;44891;50.204;8.132;2023-03-21T19:30:21;97988.38;;;8.99;100.00
59106;BME280;44891;50.204;8.132;2023-03-21T19:34:23;97989.28;;;9.05;100.00
59106;BME280;44891;50.204;8.132;2023-03-21T19:38:26;97983.22;;;9.04;100.00
59106;BME280;44891;50.204;8.132;2023-03-21T19:42:27;98000.41;;;8.71;100.00
59106;BME280;44891;50.204;8.132;2023-03-21T19:46:31;98000.63;;;8.70;100.00
59106;BME280;44891;50.204;8.132;2023-03-21T19:50:33;98000.75;;;8.63;100.00
59106;BME280;44891;50.204;8.132;2023-03-21T19:54:35;98002.69;;;8.68;100.00
59106;BME280;44891;50.204;8.132;2023-03-21T19:58:37;98004.88;;;8.59;100.00
59106;BME280;44891;50.204;8.132;2023-03-21T20:02:41;98003.63;;;8.62;100.00
59106;BME280;44891;50.204;8.132;2023-03-21T20:06:44;98013.97;;;8.68;100.00
59106;BME280;44891;50.204;8.132;2023-03-21T20:10:46;97999.41;;;8.61;100.00
59106;BME280;44891;50.204;8.132;2023-03-21T20:14:48;97993.50;;;8.54;100.00
59106;BME280;44891;50.204;8.132;2023-03-21T20:18:52;97992.59;;;8.60;100.00
59106;BME280;44891;50.204;8.132;2023-03-21T20:22:55;97992.59;;;8.60;100.00
59106;BME280;44891;50.204;8.132;2023-03-21T20:26:57;97996.56;;;8.51;100.00
59106;BME280;44891;50.204;8.132;2023-03-21T20:30:59;97983.59;;;8.44;100.00
59106;BME280;44891;50.204;8.132;2023-03-21T20:35:03;97977.19;;;8.63;100.00
59106;BME280;44891;50.204;8.132;2023-03-21T20:39:06;97977.16;;;8.87;100.00
59106;BME280;44891;50.204;8.132;2023-03-21T20:43:08;97979.81;;;9.04;100.00
59106;BME280;44891;50.204;8.132;2023-03-21T20:47:10;97976.59;;;9.13;100.00
59106;BME280;44891;50.204;8.132;2023-03-21T20:51:13;97971.53;;;9.23;100.00
59106;BME280;44891;50.204;8.132;2023-03-21T20:55:15;97977.41;;;9.31;99.57
59106;BME280;44891;50.204;8.132;2023-03-21T20:59:17;97971.97;;;9.32;98.62
59106;BME280;44891;50.204;8.132;2023-03-21T21:03:19;97977.34;;;9.25;98.34
59106;BME280;44891;50.204;8.132;2023-03-21T21:07:23;97968.44;;;9.26;98.80
59106;BME280;44891;50.204;8.132;2023-03-21T21:11:27;97969.56;;;9.31;97.38
59106;BME280;44891;50.204;8.132;2023-03-21T21:15:28;97982.66;;;9.31;96.96
59106;BME280;44891;50.204;8.132;2023-03-21T21:19:30;97979.59;;;9.34;97.34
59106;BME280;44891;50.204;8.132;2023-03-21T21:23:35;97984.03;;;9.33;96.97
59106;BME280;44891;50.204;8.132;2023-03-21T21:27:37;97981.66;;;9.32;96.76
59106;BME280;44891;50.204;8.132;2023-03-21T21:31:39;97978.16;;;9.26;96.47
59106;BME280;44891;50.204;8.132;2023-03-21T21:35:41;97970.28;;;9.26;95.73
59106;BME280;44891;50.204;8.132;2023-03-21T21:39:48;97963.22;;;9.26;95.25
59106;BME280;44891;50.204;8.132;2023-03-21T21:43:50;97964.69;;;9.22;94.89
59106;BME280;44891;50.204;8.132;2023-03-21T21:47:51;97957.19;;;9.26;93.49
59106;BME280;44891;50.204;8.132;2023-03-21T21:51:53;97946.47;;;9.27;92.83
59106;BME280;44891;50.204;8.132;2023-03-21T21:56:00;97956.03;;;9.22;93.03